Scroll down
FLIGHT INFORMATION
KLM Royal Dutch Airlines

KLM406

At Arrival Gate

EHAM
 SEQM
DATE: 2020-04-06
GATE: S77
GATE DEPARTURE: 17:17
TAKEOFF: 17:38
DATE: 2020-04-07
GATE:  -
LANDING: 05:45
GATE ARRIVAL: 05:52
FLIGHT DATA
Crew: 
Speed: 
931 kph
Altitude: 
39,048 ft
Stage Length: 
9,551.4 km
Block Time: 
12.5 hrs
Flight Time: 
12.1 hrs
Fuel Used: 
125,233 kg
Cleared Route: EHAM LEVKI EH015 EH006 EH016 VOLLA IDRID ABNED IBNOS XAMAN LOGAN JACKO TRIPO SABER LIVSU MANGO BRASO WESUL EVNAS LAM UGBET CPT KENET GAVGO DEZZU DIKAS ABDUK SWANY ASRAX DUFZO MERLY LESLU SOMAX N4800.0W02000.0 N4300.0W03060.0 N3800.0W04000.0 N3500.0W04500.0 N3200.0W05000.0 N2700.0W05700.0 FIVZE OPAUL MELLA ILAMO DAVIP XUDOR CONAY HAMSE KARUM RHC UGALU RNG CLO BOKAN ARNOK QIT RW36
TRACK DATA
50,000 ft 1,000 kts
AIRCRAFT INFO AND CUMULATIVE STATS
Aircraft Type: 
B744ERF
Registration: 
SELCAL: 
APEK
MSN/LN: 
33696 / 1341
Total Flights: 
3
Total Block Time: 
18.6 hrs
Total Flight Time: 
17.5 hrs
Total Fuel Time: 
95,970 kg
DATALINK LOG | Newest first | Current as of: 2021-05-18 23:35:12
LABEL SEQUENCE CONTENT Dn/Up
QD535205:52 79.3▼ Dn
QC464505:45▼ Dn
2U1617SEQM 070500Z 36004KT 9999 BKN005 BKN030 15/14 Q1028 NOSIG RMK A3037▲ Up
2S1716SEQM▼ Dn
5R0605CLO 05:02z FL389 BOKAN 05:24z ARNOK M0.84 41.2 -20 106/13 RW36 05:42z▼ Dn
2U3554SEQM 070400Z 02003KT 9999 BKN006 BKN030 15/14 Q1028 NOSIG RMK A3037▲ Up
2S3537SEQM▼ Dn
5R5659RHC 03:55z FL370 UGALU 04:28z RNG M0.84 50.9 -15 221/29 RW36 05:42z▼ Dn
5R3943KARUM 03:11z FL370 RHC 03:56z UGALU M0.84 57.5 -16 255/54 RW36 05:42z▼ Dn
5R0711CONAY 03:02z FL370 HAMSE 03:06z KARUM M0.84 58.7 -16 257/55 RW36 05:41z▼ Dn
5R1119OPAUL 02:06z FL370 MELLA 02:49z ILAMO M0.84 67.2 -19 269/72 RW36 05:40z▼ Dn
5R4352FIVZE 01:25z FL350 OPAUL 02:05z MELLA M0.84 73.7 -15 271/103 RW36 05:39z▼ Dn
5R5102N3200.0W05000.0 23:47z FL350 N2700.0W05700.0 00:56z FIVZE M0.84 89.4 -21 261/74 RW36 05:38z▼ Dn
5R5006N3800.0W04000.0 22:24z FL330 N3500.0W04500.0 23:04z N3200.0W05000.0 M0.84 103.0 -19 226/23 RW36 05:45z▼ Dn
5R0423N4300.0W03060.0 21:09z FL330 N3800.0W04000.0 22:29z N3500.0W04500.0 M0.84 115.9 -22 247/55 RW36 05:55z▼ Dn
5R0627N4800.0W02000.0 19:59z FL330 N4300.0W03060.0 21:11z N3800.0W04000.0 M0.84 128.1 -25 266/28 RW36 05:59z▼ Dn
5R3456N4800.0W02000.0 19:59z FL330 N4300.0W03060.0 21:11z N3800.0W04000.0 M0.84 128.1 -25 266/28 RW36 05:59z▼ Dn
5R0024LESLU 18:50z FL309 SOMAX 19:27z N4800.0W02000.0 M0.84 140.7 -21 265/45 RW36 06:06z▼ Dn
5R5923LESLU 18:50z FL309 SOMAX 19:27z N4800.0W02000.0 M0.84 140.7 -21 265/45 RW36 06:06z▼ Dn
461441/OV UGBET /TM 1813 /FL310 /TP B744 /SK BKN /WX BR VIS CLR /TA -50 /WV 251/44 /RM ACARS INLTN FAILURE▼ Dn
5R5322IDRID 17:51z FL231 ABNED 17:53z IBNOS 357 152.5 0 209/40 RW36 04:43z▼ Dn
5Z48176 APR 20 17:47:03z / FLT DECK GOOD / ACF POS GOOD / GRND SERVICES GOOD / MAINT FAILURES ACTIVE▼ Dn
QB390817:38▼ Dn
2U1802EHAM 061655Z 25012KT 220V280 9999 -RA FEW007 SCT048 13/11 Q1021 NOSIG▲ Up
2S1850EHAM▼ Dn
QA184917:17 355.5▼ Dn
Q04718[LINK ACK]▲ Up
Q04718[LINK TEST]▼ Dn


AIRCRAFT HISTORY
FLIGHT DATE FLIGHT NO. ORIGIN DESTINATION CLEARED ROUTE BLOCK TIME FLIGHT TIME FUEL USED PILOT
2020-10-18KIAH KDFW KIAH DALLN RW35L1.2 hrs0.8 hrs0 lbken rose
2020-05-24KLM519SEQM KIAH SEQM QM023 PALAD AKTAB UMGOS IRASO PAPIN KIAH4.8 hrs4.6 hrs96,967 lbChemtrails
2020-04-06KLM406EHAM SEQM EHAM LEVKI EH015 EH006 EH016 VOLLA IDRID ABNED IBNOS XAMAN LOGAN JACKO TRIPO SABER LIVSU MANGO BRASO WESUL EVNAS LAM UGBET CPT KENET GAVGO DEZZU DIKAS ABDUK SWANY ASRAX DUFZO MERLY LESLU SOMAX N4800.0W02000.0 N4300.0W03060.0 N3800.0W04000.0 N3500.0W04500.0 N3200.0W05000.0 N2700.0W05700.0 FIVZE OPAUL MELLA ILAMO DAVIP XUDOR CONAY HAMSE KARUM RHC UGALU RNG CLO BOKAN ARNOK QIT RW3612.5 hrs12.1 hrs276,091 lbDouglas Morlan